Time;durP1;ratioP1;P1;durP2;ratioP2;P2;SDS_P1;SDS_P2;PMS_P1;PMS_P2;Temp;Humidity;BMP_temperature;BMP_pressure;BME280_temperature;BME280_humidity;BME280_pressure;Samples;Min_cycle;Max_cycle;Signal;HPM_P1;HPM_P2
2022/04/05 00:01:20;;;;;;;;;;;;;;;17.42;60.54;100870.13;5014143;28;1632;-86
2022/04/05 00:03:46;;;;;;;;;;;;;;;17.38;60.41;100864.16;5007584;28;1732;-85
2022/04/05 00:06:13;;;;;;;;;;;;;;;17.42;60.07;100868.28;5001452;28;1081;-86
2022/04/05 00:08:41;;;;;;;;;;;;;;;17.42;59.90;100859.44;5005820;28;1823;-85
2022/04/05 00:11:07;;;;;;;;;;;;;;;17.36;60.22;100852.75;5012039;28;1467;-85
2022/04/05 00:13:34;;;;;;;;;;;;;;;17.40;60.35;100864.88;5013135;28;1448;-85
2022/04/05 00:16:00;;;;;;;;;;;;;;;17.35;60.24;100858.19;5006640;28;1980;-84
2022/04/05 00:18:27;;;;;;;;;;;;;;;17.35;60.26;100859.06;5010936;28;1363;-85
2022/04/05 00:20:54;;;;;;;;;;;;;;;17.35;60.17;100855.53;5017367;28;1626;-85
2022/04/05 00:23:26;;;;;;;;;;;;;;;17.34;60.55;100857.34;5014247;28;1463;-85
2022/04/05 00:25:54;;;;;;;;;;;;;;;17.29;60.41;100849.72;5015990;28;1348;-84
2022/04/05 00:28:21;;;;;;;;;;;;;;;17.29;60.28;100848.88;5012993;28;1692;-84
2022/04/05 00:30:47;;;;;;;;;;;;;;;17.32;59.88;100845.94;5015039;28;1316;-84
2022/04/05 00:33:14;;;;;;;;;;;;;;;17.31;60.55;100841.59;5015465;28;1645;-85
2022/04/05 00:35:41;;;;;;;;;;;;;;;17.30;60.43;100837.19;5012254;28;1973;-83
2022/04/05 00:38:08;;;;;;;;;;;;;;;17.32;60.35;100843.28;5014113;28;1301;-84
2022/04/05 00:40:35;;;;;;;;;;;;;;;17.31;60.85;100836.25;5016006;28;1378;-84
2022/04/05 00:43:05;;;;;;;;;;;;;;;17.30;60.13;100815.81;5002720;28;1661;-84
2022/04/05 00:45:32;;;;;;;;;;;;;;;17.31;60.83;100825.56;5011878;28;1637;-84
2022/04/05 00:47:59;;;;;;;;;;;;;;;17.28;60.65;100821.28;5007076;28;1601;-84
2022/04/05 00:50:27;;;;;;;;;;;;;;;17.32;60.75;100832.56;5013751;28;1257;-86
2022/04/05 00:52:54;;;;;;;;;;;;;;;17.32;60.58;100816.53;5017953;28;1898;-85
2022/04/05 00:55:22;;;;;;;;;;;;;;;17.31;59.81;100812.19;5019508;28;1972;-84
2022/04/05 00:57:50;;;;;;;;;;;;;;;17.28;60.39;100815.09;5014621;28;1614;-86
2022/04/05 01:00:18;;;;;;;;;;;;;;;17.31;60.24;100825.56;5013890;28;1663;-83
2022/04/05 01:02:47;;;;;;;;;;;;;;;17.40;60.38;100819.44;5008244;28;1678;-85
2022/04/05 01:05:16;;;;;;;;;;;;;;;17.74;59.51;100811.34;5020181;28;1474;-84
2022/04/05 01:07:45;;;;;;;;;;;;;;;18.05;58.92;100795.47;5015363;28;1483;-85
2022/04/05 01:10:12;;;;;;;;;;;;;;;18.21;58.41;100795.03;5018735;28;1752;-85
2022/04/05 01:12:38;;;;;;;;;;;;;;;18.03;59.08;100802.78;5016114;28;1531;-85
2022/04/05 01:15:05;;;;;;;;;;;;;;;17.99;59.29;100793.31;5005351;28;1910;-86
2022/04/05 01:17:34;;;;;;;;;;;;;;;18.24;57.92;100798.31;5014801;28;1372;-86
2022/04/05 01:20:01;;;;;;;;;;;;;;;18.28;58.81;100789.03;5009640;28;1892;-86
2022/04/05 01:22:28;;;;;;;;;;;;;;;18.40;57.97;100788.94;5017527;28;1468;-85
2022/04/05 01:24:55;;;;;;;;;;;;;;;18.62;57.72;100785.28;5014497;28;1293;-85
2022/04/05 01:27:27;;;;;;;;;;;;;;;19.05;56.02;100777.03;5018627;28;1537;-84
2022/04/05 01:29:54;;;;;;;;;;;;;;;19.09;56.01;100780.31;5005855;28;1010;-85
2022/04/05 01:32:22;;;;;;;;;;;;;;;19.10;56.82;100791.88;5016137;28;1847;-86
2022/04/05 01:34:49;;;;;;;;;;;;;;;19.14;56.40;100793.28;5019935;28;1914;-86
2022/04/05 01:37:15;;;;;;;;;;;;;;;19.17;56.19;100795.72;5005405;28;1463;-86
2022/04/05 01:39:43;;;;;;;;;;;;;;;19.00;57.37;100783.78;5011853;28;1373;-85
2022/04/05 01:42:12;;;;;;;;;;;;;;;19.05;56.51;100781.56;5014399;28;1662;-84
2022/04/05 01:44:38;;;;;;;;;;;;;;;19.17;55.81;100771.59;5016635;28;1573;-84
2022/04/05 01:47:06;;;;;;;;;;;;;;;19.11;56.65;100780.19;5001933;28;1510;-84
2022/04/05 01:49:32;;;;;;;;;;;;;;;19.37;56.49;100786.72;5010231;28;1434;-85
2022/04/05 01:51:59;;;;;;;;;;;;;;;19.26;56.49;100779.66;5016101;28;1152;-85
2022/04/05 01:54:25;;;;;;;;;;;;;;;19.37;55.42;100773.31;5017118;28;1298;-87
2022/04/05 01:56:56;;;;;;;;;;;;;;;19.44;55.91;100774.50;5009150;28;1968;-85
2022/04/05 01:59:26;;;;;;;;;;;;;;;19.47;56.28;100774.19;5016989;28;1415;-85
2022/04/05 02:01:53;;;;;;;;;;;;;;;19.39;55.60;100771.34;5007984;28;1558;-85
2022/04/05 02:04:20;;;;;;;;;;;;;;;19.55;55.96;100767.28;5011151;28;1610;-84
2022/04/05 02:06:47;;;;;;;;;;;;;;;19.54;55.17;100776.34;5018144;28;1305;-85
2022/04/05 02:09:14;;;;;;;;;;;;;;;19.42;55.41;100762.22;5014770;28;1580;-84
2022/04/05 02:11:42;;;;;;;;;;;;;;;19.38;55.75;100769.69;5012887;28;1709;-86
2022/04/05 02:14:08;;;;;;;;;;;;;;;19.38;55.40;100771.53;5016466;28;1617;-85
2022/04/05 02:16:36;;;;;;;;;;;;;;;19.38;55.49;100761.63;5010793;28;1977;-86
2022/04/05 02:19:03;;;;;;;;;;;;;;;19.41;55.87;100749.78;5015708;28;1486;-85
2022/04/05 02:21:29;;;;;;;;;;;;;;;19.26;56.75;100768.94;5019572;28;1304;-84
2022/04/05 02:23:56;;;;;;;;;;;;;;;19.32;56.62;100761.31;5017259;28;1625;-85
2022/04/05 02:26:22;;;;;;;;;;;;;;;19.24;56.37;100762.03;5012045;28;1598;-85
2022/04/05 02:28:50;;;;;;;;;;;;;;;19.43;55.82;100761.22;5015094;28;1370;-86
2022/04/05 02:31:16;;;;;;;;;;;;;;;19.46;55.29;100764.47;5017130;28;1625;-85
2022/04/05 02:33:45;;;;;;;;;;;;;;;19.63;56.08;100765.59;5011500;28;1552;-86
2022/04/05 02:36:11;;;;;;;;;;;;;;;19.70;55.93;100763.22;5010518;28;1883;-85
2022/04/05 02:38:38;;;;;;;;;;;;;;;19.50;56.30;100757.00;5012639;28;1625;-85
2022/04/05 02:41:05;;;;;;;;;;;;;;;19.47;55.92;100752.75;5012170;28;1598;-85
2022/04/05 02:43:32;;;;;;;;;;;;;;;19.45;55.70;100768.13;5015511;28;1813;-84
2022/04/05 02:45:58;;;;;;;;;;;;;;;19.33;55.45;100757.66;5014168;28;1301;-86
2022/04/05 02:48:25;;;;;;;;;;;;;;;19.28;56.09;100750.03;5013499;28;1400;-86
2022/04/05 02:50:53;;;;;;;;;;;;;;;19.33;56.74;100765.72;5014896;28;1372;-86
2022/04/05 02:53:20;;;;;;;;;;;;;;;19.30;56.40;100750.75;5014564;28;1518;-85
2022/04/05 02:55:46;;;;;;;;;;;;;;;19.31;55.89;100747.06;5007086;28;1903;-87
2022/04/05 02:58:13;;;;;;;;;;;;;;;19.36;56.27;100750.19;5015611;28;1506;-84
2022/04/05 03:00:40;;;;;;;;;;;;;;;19.37;56.45;100756.41;5018197;28;1443;-85
2022/04/05 03:03:06;;;;;;;;;;;;;;;19.35;55.89;100747.66;4998423;28;1626;-85
2022/04/05 03:05:33;;;;;;;;;;;;;;;19.42;55.84;100764.88;5010134;28;1077;-85
2022/04/05 03:08:01;;;;;;;;;;;;;;;19.42;55.18;100744.28;5005190;28;1749;-84
2022/04/05 03:10:29;;;;;;;;;;;;;;;19.44;56.34;100750.34;5014649;28;1665;-86
2022/04/05 03:12:55;;;;;;;;;;;;;;;19.37;56.02;100741.16;5015730;28;1486;-85
2022/04/05 03:15:22;;;;;;;;;;;;;;;19.30;56.84;100742.72;5006850;28;1977;-85
2022/04/05 03:17:48;;;;;;;;;;;;;;;19.36;55.67;100747.50;5004969;28;1656;-86
2022/04/05 03:20:15;;;;;;;;;;;;;;;19.38;55.57;100733.97;5011469;28;1398;-84
2022/04/05 03:22:42;;;;;;;;;;;;;;;19.39;56.60;100747.22;5015292;28;1521;-85
2022/04/05 03:25:10;;;;;;;;;;;;;;;19.38;56.36;100729.44;5014296;28;1616;-84
2022/04/05 03:27:40;;;;;;;;;;;;;;;19.44;55.72;100738.78;5016944;28;1444;-86
2022/04/05 03:30:08;;;;;;;;;;;;;;;19.31;56.47;100727.47;5005694;28;1274;-85
2022/04/05 03:32:34;;;;;;;;;;;;;;;19.31;55.68;100725.63;5017263;28;1792;-85
2022/04/05 03:35:01;;;;;;;;;;;;;;;19.38;55.62;100728.63;5006704;28;1551;-87
2022/04/05 03:37:27;;;;;;;;;;;;;;;19.43;56.43;100726.34;5015733;28;1903;-84
2022/04/05 03:39:54;;;;;;;;;;;;;;;19.40;55.32;100729.31;5014328;28;1415;-84
2022/04/05 03:42:21;;;;;;;;;;;;;;;19.38;55.76;100740.19;5011131;28;1368;-86
2022/04/05 03:44:48;;;;;;;;;;;;;;;19.48;56.32;100741.03;5011706;28;1635;-86
2022/04/05 03:47:14;;;;;;;;;;;;;;;19.43;56.00;100737.91;5010567;28;1878;-85
2022/04/05 03:49:41;;;;;;;;;;;;;;;19.52;56.33;100746.09;5008296;28;1337;-85
2022/04/05 03:52:08;;;;;;;;;;;;;;;19.46;56.48;100729.59;5014441;28;1285;-84
2022/04/05 03:57:39;;;;;;;;;;;;;;;18.83;57.61;100743.25;5012789;28;1910;-85
2022/04/05 04:00:06;;;;;;;;;;;;;;;18.57;58.17;100739.31;5007060;28;1290;-86
2022/04/05 04:02:35;;;;;;;;;;;;;;;18.43;58.44;100735.16;5010324;28;1512;-85
2022/04/05 04:05:01;;;;;;;;;;;;;;;18.35;58.72;100727.78;5020037;28;1303;-86
2022/04/05 04:07:28;;;;;;;;;;;;;;;18.24;59.09;100742.09;5015810;28;1235;-85
2022/04/05 04:09:55;;;;;;;;;;;;;;;18.25;58.67;100735.75;5007048;28;1512;-84
2022/04/05 04:12:21;;;;;;;;;;;;;;;18.21;58.90;100753.03;5015507;28;1586;-85
2022/04/05 04:14:50;;;;;;;;;;;;;;;18.18;59.19;100755.97;5007635;28;1871;-85
2022/04/05 04:17:17;;;;;;;;;;;;;;;18.12;59.38;100743.13;5009974;28;1980;-85
2022/04/05 04:19:44;;;;;;;;;;;;;;;18.08;59.10;100742.56;5009935;28;1773;-85
2022/04/05 04:22:11;;;;;;;;;;;;;;;18.07;59.39;100742.69;5009472;28;1645;-86
2022/04/05 04:24:37;;;;;;;;;;;;;;;18.01;59.62;100740.53;5008353;28;1058;-86
2022/04/05 04:27:04;;;;;;;;;;;;;;;18.00;59.07;100757.53;5013650;28;1732;-85
2022/04/05 04:29:30;;;;;;;;;;;;;;;18.00;59.07;100752.19;5018801;28;1819;-83
2022/04/05 04:31:58;;;;;;;;;;;;;;;17.95;59.37;100749.06;5015582;28;1495;-86
2022/04/05 04:34:26;;;;;;;;;;;;;;;17.98;59.86;100760.34;5012655;28;1435;-85
2022/04/05 04:36:52;;;;;;;;;;;;;;;17.94;59.54;100752.69;5015475;28;1981;-86
2022/04/05 04:39:19;;;;;;;;;;;;;;;17.92;59.79;100743.97;5018534;28;1768;-86
2022/04/05 04:41:45;;;;;;;;;;;;;;;17.89;59.40;100753.09;5016321;28;1760;-83
2022/04/05 04:44:13;;;;;;;;;;;;;;;17.91;59.05;100758.31;5014888;28;1432;-89
2022/04/05 04:46:39;;;;;;;;;;;;;;;17.71;58.74;100755.44;5020458;28;1031;-86
2022/04/05 04:49:07;;;;;;;;;;;;;;;17.72;58.88;100753.63;5021233;28;1058;-88
2022/04/05 04:51:33;;;;;;;;;;;;;;;17.68;59.42;100753.84;5021297;28;1150;-88
2022/04/05 04:54:00;;;;;;;;;;;;;;;17.64;59.41;100756.94;5020265;28;1120;-88
2022/04/05 04:56:27;;;;;;;;;;;;;;;17.79;58.50;100742.28;5020505;28;1895;-86
2022/04/05 04:58:53;;;;;;;;;;;;;;;17.88;58.29;100754.91;5013286;28;1455;-87
2022/04/05 05:01:20;;;;;;;;;;;;;;;17.95;58.37;100759.78;5004670;28;1776;-87
2022/04/05 05:03:46;;;;;;;;;;;;;;;17.88;58.86;100749.56;5012666;28;1293;-87
2022/04/05 05:06:14;;;;;;;;;;;;;;;17.96;58.24;100756.09;5020091;28;1522;-85
2022/04/05 05:08:40;;;;;;;;;;;;;;;17.97;58.33;100742.59;5016817;28;1310;-87
2022/04/05 05:11:07;;;;;;;;;;;;;;;17.92;58.51;100750.16;5014810;28;1514;-87
2022/04/05 05:13:33;;;;;;;;;;;;;;;17.86;57.81;100751.50;5015039;28;1590;-87
2022/04/05 05:16:00;;;;;;;;;;;;;;;17.84;58.54;100756.13;5019087;28;1932;-88
2022/04/05 05:18:27;;;;;;;;;;;;;;;17.81;58.22;100748.34;5016544;28;1493;-85
2022/04/05 05:20:53;;;;;;;;;;;;;;;17.91;58.15;100755.66;5020493;28;1356;-87
2022/04/05 05:23:21;;;;;;;;;;;;;;;17.98;58.18;100759.50;5025989;28;1512;-84
2022/04/05 05:25:48;;;;;;;;;;;;;;;18.05;58.59;100760.69;5016798;28;1328;-81
2022/04/05 05:28:14;;;;;;;;;;;;;;;18.12;57.99;100771.72;5026440;28;1507;-82
2022/04/05 05:30:41;;;;;;;;;;;;;;;18.08;58.61;100763.97;5027018;28;1426;-83
2022/04/05 05:33:07;;;;;;;;;;;;;;;18.17;59.24;100758.81;5020201;28;1474;-86
2022/04/05 05:35:34;;;;;;;;;;;;;;;18.16;58.57;100755.25;5033621;28;1302;-84
2022/04/05 05:38:01;;;;;;;;;;;;;;;18.15;58.98;100750.91;5017148;28;1983;-87
2022/04/05 05:40:31;;;;;;;;;;;;;;;18.16;58.96;100746.38;5023879;28;1351;-87
2022/04/05 05:43:02;;;;;;;;;;;;;;;18.24;58.82;100754.59;5015624;28;1550;-88
2022/04/05 05:45:44;;;;;;;;;;;;;;;18.31;58.44;100733.53;5006272;28;1726;-88
2022/04/05 05:48:10;;;;;;;;;;;;;;;18.33;59.57;100744.97;5018910;28;1460;-87
2022/04/05 05:50:37;;;;;;;;;;;;;;;18.31;58.54;100749.59;5016351;28;1496;-87
2022/04/05 05:53:04;;;;;;;;;;;;;;;18.33;59.46;100755.66;5013771;28;1646;-85
2022/04/05 05:55:32;;;;;;;;;;;;;;;18.35;58.98;100745.69;5010869;28;1734;-88
2022/04/05 05:58:00;;;;;;;;;;;;;;;18.38;58.92;100745.41;5012964;28;1987;-86
2022/04/05 06:00:26;;;;;;;;;;;;;;;18.44;59.22;100752.91;5015661;28;1468;-87
2022/04/05 06:02:55;;;;;;;;;;;;;;;18.46;59.06;100761.66;5006275;28;1764;-87
2022/04/05 06:05:22;;;;;;;;;;;;;;;18.39;57.75;100752.47;5006934;28;1847;-87
2022/04/05 06:07:50;;;;;;;;;;;;;;;18.38;57.05;100750.75;5016237;28;1632;-86
2022/04/05 06:10:16;;;;;;;;;;;;;;;18.46;56.75;100737.53;5015220;28;1663;-87
2022/04/05 06:12:45;;;;;;;;;;;;;;;18.48;57.73;100763.22;5017695;28;1748;-87
2022/04/05 06:15:12;;;;;;;;;;;;;;;18.42;57.95;100754.84;5013088;28;1664;-86
2022/04/05 06:17:40;;;;;;;;;;;;;;;18.40;57.95;100744.31;5022225;28;1985;-87
2022/04/05 06:20:08;;;;;;;;;;;;;;;18.39;58.61;100744.44;5003541;28;1508;-87
2022/04/05 06:22:40;;;;;;;;;;;;;;;18.42;58.79;100755.72;5016837;28;1607;-87
2022/04/05 06:25:08;;;;;;;;;;;;;;;18.45;58.57;100751.94;5010581;28;1731;-86
2022/04/05 06:27:36;;;;;;;;;;;;;;;18.44;58.25;100731.47;5016247;28;1645;-87
2022/04/05 06:30:05;;;;;;;;;;;;;;;18.45;57.85;100719.81;5016968;28;1516;-87
2022/04/05 06:32:31;;;;;;;;;;;;;;;18.47;57.82;100740.09;5004965;28;1589;-87
2022/04/05 06:34:58;;;;;;;;;;;;;;;18.44;58.22;100732.34;5013854;28;1753;-87
2022/04/05 06:37:24;;;;;;;;;;;;;;;16.61;50.79;100739.31;5003824;28;1964;-86
2022/04/05 06:39:51;;;;;;;;;;;;;;;17.30;57.91;100736.47;5015431;28;1481;-88
2022/04/05 06:42:25;;;;;;;;;;;;;;;17.76;58.00;100742.53;5018558;28;1713;-87
2022/04/05 06:44:52;;;;;;;;;;;;;;;17.97;55.09;100733.72;5005211;28;1768;-86
2022/04/05 06:47:20;;;;;;;;;;;;;;;18.08;55.05;100728.28;5009839;28;1788;-87
2022/04/05 06:49:46;;;;;;;;;;;;;;;18.13;54.89;100720.75;5006267;28;1626;-86
2022/04/05 06:52:12;;;;;;;;;;;;;;;18.17;54.76;100711.47;5017651;28;1772;-86
2022/04/05 06:54:39;;;;;;;;;;;;;;;18.22;54.64;100722.63;5010134;28;1614;-87
2022/04/05 06:57:05;;;;;;;;;;;;;;;18.23;55.00;100721.66;5003176;28;1894;-88
2022/04/05 06:59:32;;;;;;;;;;;;;;;18.20;54.29;100719.22;5003695;28;1745;-87
2022/04/05 07:02:00;;;;;;;;;;;;;;;18.17;54.65;100707.94;5013201;28;1645;-86
2022/04/05 07:04:29;;;;;;;;;;;;;;;18.23;54.44;100708.25;5008313;28;1527;-86
2022/04/05 07:06:56;;;;;;;;;;;;;;;18.23;54.85;100720.81;5013128;28;1297;-85
2022/04/05 07:09:23;;;;;;;;;;;;;;;18.20;55.31;100715.69;5014625;28;1628;-87
2022/04/05 07:11:50;;;;;;;;;;;;;;;18.19;55.35;100703.31;5003815;28;1761;-87
2022/04/05 07:14:16;;;;;;;;;;;;;;;18.20;55.29;100711.19;5012990;28;1792;-86
2022/04/05 07:19:47;;;;;;;;;;;;;;;18.16;55.65;100709.75;5008585;28;1764;-88
2022/04/05 07:22:14;;;;;;;;;;;;;;;18.15;55.60;100702.72;4998809;28;1741;-87
2022/04/05 07:24:40;;;;;;;;;;;;;;;18.18;56.40;100714.97;5009739;28;1069;-86
2022/04/05 07:27:07;;;;;;;;;;;;;;;18.19;55.29;100716.69;5006589;28;1085;-86
2022/04/05 07:29:33;;;;;;;;;;;;;;;18.20;56.03;100716.53;5011214;28;1624;-86
2022/04/05 07:32:00;;;;;;;;;;;;;;;18.19;55.77;100712.19;5010753;28;1780;-86
2022/04/05 07:34:27;;;;;;;;;;;;;;;18.24;55.90;100722.47;5008479;28;1657;-86
2022/04/05 07:36:55;;;;;;;;;;;;;;;18.24;55.95;100715.31;5017833;28;1977;-86
2022/04/05 07:39:23;;;;;;;;;;;;;;;18.22;56.23;100701.22;5012768;28;1605;-86
2022/04/05 07:41:49;;;;;;;;;;;;;;;18.21;55.76;100712.91;5007053;28;1765;-86
2022/04/05 07:44:16;;;;;;;;;;;;;;;18.21;56.13;100704.88;5010931;28;1835;-87
2022/04/05 07:46:42;;;;;;;;;;;;;;;18.18;56.12;100697.09;5007489;28;1398;-87
2022/04/05 07:49:09;;;;;;;;;;;;;;;18.20;56.48;100703.16;5006649;28;1514;-86
2022/04/05 07:51:37;;;;;;;;;;;;;;;18.17;56.64;100711.47;5005327;28;1120;-86
2022/04/05 07:54:06;;;;;;;;;;;;;;;18.18;55.84;100698.94;5005076;28;1792;-87
2022/04/05 07:56:33;;;;;;;;;;;;;;;18.20;56.03;100705.84;5013604;28;1641;-86
2022/04/05 07:59:01;;;;;;;;;;;;;;;18.20;56.26;100711.19;5006956;28;1962;-87
2022/04/05 08:01:29;;;;;;;;;;;;;;;18.17;55.85;100690.06;4998100;28;1717;-86
2022/04/05 08:03:55;;;;;;;;;;;;;;;18.19;56.05;100704.16;5008559;28;1282;-87
2022/04/05 08:06:23;;;;;;;;;;;;;;;18.20;56.78;100700.47;5013677;28;1097;-87
2022/04/05 08:08:49;;;;;;;;;;;;;;;18.19;56.60;100701.47;5003687;28;1705;-87
2022/04/05 08:11:17;;;;;;;;;;;;;;;18.18;56.73;100688.22;5009898;28;1454;-87
2022/04/05 08:13:44;;;;;;;;;;;;;;;18.16;56.48;100693.69;5007259;28;1442;-87
2022/04/05 08:16:10;;;;;;;;;;;;;;;18.15;56.88;100693.84;5009910;28;1614;-86
2022/04/05 08:18:37;;;;;;;;;;;;;;;18.15;56.85;100686.66;5009845;28;1891;-87
2022/04/05 08:21:03;;;;;;;;;;;;;;;18.15;57.16;100683.16;5008341;28;1014;-87
2022/04/05 08:23:30;;;;;;;;;;;;;;;18.12;57.00;100675.38;5011528;28;1664;-86
2022/04/05 08:25:58;;;;;;;;;;;;;;;18.11;57.11;100674.53;5010323;28;1606;-88
2022/04/05 08:28:26;;;;;;;;;;;;;;;18.14;56.90;100679.59;5004147;28;1602;-86
2022/04/05 08:30:53;;;;;;;;;;;;;;;18.14;56.96;100678.75;5009400;28;1602;-87
2022/04/05 08:33:19;;;;;;;;;;;;;;;18.11;57.19;100658.47;5007900;28;1479;-86
2022/04/05 08:35:46;;;;;;;;;;;;;;;18.07;56.91;100667.75;5013000;28;1389;-87
2022/04/05 08:38:13;;;;;;;;;;;;;;;18.08;56.57;100661.41;5012257;28;1967;-86
2022/04/05 08:40:40;;;;;;;;;;;;;;;18.06;57.15;100655.34;5011012;28;1685;-88
2022/04/05 08:43:06;;;;;;;;;;;;;;;18.08;56.92;100654.25;5005876;28;1473;-86
2022/04/05 08:45:36;;;;;;;;;;;;;;;18.07;56.73;100649.84;5011868;28;1680;-87
2022/04/05 08:48:04;;;;;;;;;;;;;;;18.09;56.65;100666.63;5007325;28;1609;-87
2022/04/05 08:50:33;;;;;;;;;;;;;;;18.07;56.95;100655.22;5011515;28;1198;-86
2022/04/05 08:53:00;;;;;;;;;;;;;;;18.03;56.73;100645.75;4999391;28;1622;-87
2022/04/05 08:55:28;;;;;;;;;;;;;;;18.04;57.34;100655.47;5009495;28;1582;-86
2022/04/05 08:57:54;;;;;;;;;;;;;;;18.05;57.14;100643.78;5006261;28;1970;-86
2022/04/05 09:00:22;;;;;;;;;;;;;;;18.02;57.75;100636.00;5005889;28;1093;-87
2022/04/05 09:02:54;;;;;;;;;;;;;;;18.02;57.40;100629.81;5010090;28;1761;-88
2022/04/05 09:05:28;;;;;;;;;;;;;;;18.02;57.20;100633.34;5014564;28;1764;-87
2022/04/05 09:07:54;;;;;;;;;;;;;;;18.04;56.90;100631.38;5012452;28;1636;-88
2022/04/05 09:10:21;;;;;;;;;;;;;;;18.03;57.09;100634.22;5013119;28;1657;-86
2022/04/05 09:12:48;;;;;;;;;;;;;;;18.03;57.11;100643.06;5009141;28;1677;-87
2022/04/05 09:15:24;;;;;;;;;;;;;;;18.01;57.18;100633.50;5006360;28;1588;-87
2022/04/05 09:17:51;;;;;;;;;;;;;;;18.17;56.19;100625.81;5014073;28;1963;-83
2022/04/05 09:20:19;;;;;;;;;;;;;;;18.21;56.15;100623.72;5008862;28;1492;-86
2022/04/05 09:22:46;;;;;;;;;;;;;;;18.22;56.61;100636.13;5017812;28;1686;-86
2022/04/05 09:25:14;;;;;;;;;;;;;;;18.32;56.06;100618.28;5012869;28;1645;-85
2022/04/05 09:27:47;;;;;;;;;;;;;;;18.29;56.50;100619.41;5017467;28;1650;-83
2022/04/05 09:30:14;;;;;;;;;;;;;;;18.37;56.64;100621.41;5019906;28;1658;-88
2022/04/05 09:32:43;;;;;;;;;;;;;;;18.32;56.33;100612.06;5005889;28;1776;-88
2022/04/05 09:35:10;;;;;;;;;;;;;;;18.27;55.44;100599.09;5014851;28;1761;-87
2022/04/05 09:37:39;;;;;;;;;;;;;;;18.20;55.42;100603.28;5019486;28;1898;-88
2022/04/05 09:40:15;;;;;;;;;;;;;;;18.30;54.86;100612.19;5014627;28;1951;-89
2022/04/05 09:42:57;;;;;;;;;;;;;;;18.17;54.70;100604.41;5019604;28;1484;-90
2022/04/05 09:45:39;;;;;;;;;;;;;;;18.23;54.88;100603.03;5020065;28;1078;-91
2022/04/05 09:48:05;;;;;;;;;;;;;;;18.20;54.80;100589.91;5020894;28;1611;-89
2022/04/05 09:50:32;;;;;;;;;;;;;;;18.16;54.75;100586.66;5020542;28;1642;-90
2022/04/05 09:53:06;;;;;;;;;;;;;;;18.20;54.75;100581.88;5020763;28;1332;-91
2022/04/05 09:55:34;;;;;;;;;;;;;;;18.20;54.87;100581.88;5021152;28;1774;-90
2022/04/05 09:58:14;;;;;;;;;;;;;;;18.19;54.81;100591.75;5023119;28;1902;-90
2022/04/05 10:00:41;;;;;;;;;;;;;;;18.18;55.06;100573.97;5046635;23;3591;-36
2022/04/05 10:03:11;;;;;;;;;;;;;;;18.14;54.06;100580.59;5030978;28;1729;-34
2022/04/05 10:05:41;;;;;;;;;;;;;;;18.01;54.90;100571.94;5029564;28;1635;-34
2022/04/05 10:08:10;;;;;;;;;;;;;;;17.81;53.47;100566.47;5028647;28;1855;-34
2022/04/05 10:10:37;;;;;;;;;;;;;;;17.89;54.21;100579.22;5017391;28;1967;-34
2022/04/05 10:13:09;;;;;;;;;;;;;;;18.01;54.04;100564.75;5023715;28;1658;-34
2022/04/05 10:15:37;;;;;;;;;;;;;;;18.06;54.20;100569.69;5033355;28;1575;-34
2022/04/05 10:18:06;;;;;;;;;;;;;;;18.06;53.57;100559.88;5035770;28;1898;-33
2022/04/05 10:20:35;;;;;;;;;;;;;;;18.11;54.20;100561.28;5034429;28;1502;-34
2022/04/05 10:23:11;;;;;;;;;;;;;;;18.09;54.53;100546.22;5033489;28;1777;-34
2022/04/05 10:25:42;;;;;;;;;;;;;;;18.12;54.21;100558.47;5021108;28;1941;-34
2022/04/05 10:28:12;;;;;;;;;;;;;;;18.11;54.49;100545.25;5034023;28;1896;-34
2022/04/05 10:30:41;;;;;;;;;;;;;;;18.10;54.38;100531.00;5025445;28;1642;-34
2022/04/05 10:33:19;;;;;;;;;;;;;;;18.11;54.82;100530.03;5038464;28;1482;-34
2022/04/05 10:35:53;;;;;;;;;;;;;;;18.13;54.74;100528.06;5032647;28;1413;-34
2022/04/05 10:38:21;;;;;;;;;;;;;;;18.11;54.95;100527.34;5030720;28;1961;-34
2022/04/05 10:41:05;;;;;;;;;;;;;;;18.08;55.01;100514.22;5021236;28;1989;-34
2022/04/05 10:43:42;;;;;;;;;;;;;;;18.12;54.98;100518.31;5033878;28;2489;-33
2022/04/05 10:46:13;;;;;;;;;;;;;;;18.11;55.35;100519.31;5022866;28;1632;-33
2022/04/05 10:49:14;;;;;;;;;;;;;;;18.15;54.89;100515.38;5031580;28;1455;-34
2022/04/05 10:52:00;;;;;;;;;;;;;;;18.16;54.92;100506.34;5026950;28;1838;-33
2022/04/05 10:54:36;;;;;;;;;;;;;;;18.17;55.36;100502.72;5033202;28;1760;-33
2022/04/05 10:57:27;;;;;;;;;;;;;;;18.24;54.81;100509.22;5027624;28;1753;-34
2022/04/05 11:00:11;;;;;;;;;;;;;;;18.21;54.75;100498.78;5035523;28;1902;-34
2022/04/05 11:02:43;;;;;;;;;;;;;;;18.16;55.38;100481.44;5027059;28;1770;-34
2022/04/05 11:05:36;;;;;;;;;;;;;;;18.19;55.59;100495.41;5032845;28;1857;-34
2022/04/05 11:08:07;;;;;;;;;;;;;;;18.15;55.41;100493.97;5041050;28;1467;-34
2022/04/05 11:10:53;;;;;;;;;;;;;;;18.17;55.38;100483.16;5018543;28;1804;-34
2022/04/05 11:13:30;;;;;;;;;;;;;;;18.17;55.63;100467.09;5016243;28;2040;-34
2022/04/05 11:16:00;;;;;;;;;;;;;;;18.18;55.62;100480.31;5020151;28;2121;-34
2022/04/05 11:18:28;;;;;;;;;;;;;;;18.17;55.28;100454.53;5031284;28;1978;-34
2022/04/05 11:20:57;;;;;;;;;;;;;;;18.19;55.75;100457.09;5034240;28;1655;-34
2022/04/05 11:23:41;;;;;;;;;;;;;;;18.20;55.58;100454.25;5031534;28;1735;-34
2022/04/05 11:26:39;;;;;;;;;;;;;;;18.20;55.61;100458.75;5032313;28;1639;-36
2022/04/05 11:29:19;;;;;;;;;;;;;;;18.21;55.88;100455.97;4966499;28;1828;-33
2022/04/05 11:31:48;;;;;;;;;;;;;;;18.18;55.54;100445.50;5018428;28;1757;-33
2022/04/05 11:34:34;;;;;;;;;;;;;;;18.18;55.14;100442.00;5030957;28;1646;-33
2022/04/05 11:37:00;;;;;;;;;;;;;;;18.25;54.71;100435.97;5028864;28;1726;-33
2022/04/05 11:39:27;;;;;;;;;;;;;;;18.24;54.63;100445.00;5030521;28;1987;-33
2022/04/05 11:41:57;;;;;;;;;;;;;;;18.28;54.54;100434.81;5027908;28;1810;-32
2022/04/05 11:44:24;;;;;;;;;;;;;;;18.33;55.41;100432.59;5024666;28;1549;-34
2022/04/05 11:46:56;;;;;;;;;;;;;;;18.29;55.26;100425.81;5029673;28;1552;-33
2022/04/05 11:49:23;;;;;;;;;;;;;;;18.26;54.97;100426.97;5026102;28;1490;-33
2022/04/05 11:51:50;;;;;;;;;;;;;;;18.25;55.55;100409.19;5028490;28;1490;-33
2022/04/05 11:54:18;;;;;;;;;;;;;;;18.29;55.37;100421.31;5023646;28;1812;-33
2022/04/05 11:56:45;;;;;;;;;;;;;;;18.32;55.71;100420.19;5027776;28;1740;-33
2022/04/05 11:59:12;;;;;;;;;;;;;;;18.32;55.58;100403.28;5016520;28;1906;-34
2022/04/05 12:01:40;;;;;;;;;;;;;;;18.27;55.87;100395.69;5025242;28;1644;-34
2022/04/05 12:04:09;;;;;;;;;;;;;;;18.28;55.88;100395.53;5025740;28;1473;-34
2022/04/05 12:06:37;;;;;;;;;;;;;;;18.29;55.71;100393.72;5037141;28;1546;-33
2022/04/05 12:09:04;;;;;;;;;;;;;;;18.31;55.32;100401.59;5031275;28;1806;-33
2022/04/05 12:11:32;;;;;;;;;;;;;;;18.19;55.18;100392.84;5019087;28;1633;-33
2022/04/05 12:13:59;;;;;;;;;;;;;;;18.22;56.10;100393.44;5026505;28;1688;-33
2022/04/05 12:16:26;;;;;;;;;;;;;;;18.28;55.90;100387.50;5027167;28;1526;-33
2022/04/05 12:18:53;;;;;;;;;;;;;;;18.32;55.52;100389.91;5023580;28;1975;-34
2022/04/05 12:21:24;;;;;;;;;;;;;;;18.32;55.46;100389.91;5031574;28;1376;-34
2022/04/05 12:23:51;;;;;;;;;;;;;;;18.27;55.53;100368.91;5027723;28;1516;-34
2022/04/05 12:26:19;;;;;;;;;;;;;;;18.25;55.56;100377.06;5028807;28;1524;-34
2022/04/05 12:28:48;;;;;;;;;;;;;;;18.16;55.72;100361.00;5028229;28;1743;-34
2022/04/05 12:31:16;;;;;;;;;;;;;;;18.15;55.75;100360.16;5021647;28;1494;-34
2022/04/05 12:33:53;;;;;;;;;;;;;;;18.18;55.58;100365.22;5030678;28;1308;-34
2022/04/05 12:36:21;;;;;;;;;;;;;;;18.17;55.37;100355.53;5017535;28;1320;-33
2022/04/05 12:38:49;;;;;;;;;;;;;;;18.21;55.30;100351.56;5023735;28;1906;-34
2022/04/05 12:41:16;;;;;;;;;;;;;;;18.25;55.55;100350.31;5023046;28;1696;-34
2022/04/05 12:43:43;;;;;;;;;;;;;;;18.25;55.81;100355.66;5034031;28;1559;-34
2022/04/05 12:46:11;;;;;;;;;;;;;;;18.22;56.03;100339.91;5028580;28;1576;-33
2022/04/05 12:48:37;;;;;;;;;;;;;;;18.21;56.01;100346.22;5031914;28;1525;-34
2022/04/05 12:51:05;;;;;;;;;;;;;;;18.21;55.73;100342.72;5028796;28;1834;-34
2022/04/05 12:53:35;;;;;;;;;;;;;;;18.18;56.18;100348.34;5033551;28;1600;-34
2022/04/05 12:56:04;;;;;;;;;;;;;;;18.17;55.69;100342.16;5028249;28;1336;-34
2022/04/05 12:58:35;;;;;;;;;;;;;;;18.22;55.84;100345.25;5029940;28;1977;-34
2022/04/05 13:01:01;;;;;;;;;;;;;;;18.28;55.49;100325.94;5030906;28;1775;-34